createdAt,value
2017-11-17T00:01:12.412Z,0
2017-11-17T00:02:24.954Z,0
2017-11-17T00:03:37.552Z,0
2017-11-17T00:04:50.084Z,0
2017-11-17T00:06:03.074Z,0
2017-11-17T00:07:16.261Z,0
2017-11-17T00:08:29.343Z,0
2017-11-17T00:09:42.137Z,0
2017-11-17T00:10:55.174Z,0
2017-11-17T00:12:08.219Z,0
2017-11-17T00:13:20.730Z,0
2017-11-17T00:14:33.797Z,0
2017-11-17T00:15:46.787Z,0
2017-11-17T00:16:59.854Z,0
2017-11-17T00:18:12.435Z,0
2017-11-17T00:19:25.496Z,0
2017-11-17T00:20:38.550Z,0
2017-11-17T00:21:51.779Z,0
2017-11-17T00:23:03.382Z,0
2017-11-17T00:24:16.425Z,0
2017-11-17T00:25:28.948Z,0
2017-11-17T00:26:42.042Z,0
2017-11-17T00:27:55.088Z,0
2017-11-17T00:29:08.319Z,0
2017-11-17T00:30:20.885Z,0
2017-11-17T00:31:34.218Z,0
2017-11-17T00:32:47.297Z,0
2017-11-17T00:34:00.619Z,0
2017-11-17T00:35:13.590Z,0
2017-11-17T00:36:26.582Z,0
2017-11-17T00:37:39.123Z,0
2017-11-17T00:38:52.087Z,0
2017-11-17T00:40:05.115Z,0
2017-11-17T00:41:17.217Z,0
2017-11-17T00:42:30.215Z,0
2017-11-17T00:43:43.215Z,0
2017-11-17T00:44:56.241Z,0
2017-11-17T00:46:08.795Z,0
2017-11-17T00:47:21.310Z,0
2017-11-17T00:48:34.316Z,0
2017-11-17T00:49:46.820Z,0
2017-11-17T00:50:58.878Z,0
2017-11-17T00:52:11.889Z,0
2017-11-17T00:53:24.391Z,0
2017-11-17T00:54:36.951Z,0
2017-11-17T00:55:49.967Z,0
2017-11-17T00:57:02.973Z,0
2017-11-17T00:58:15.495Z,0
2017-11-17T00:59:28.478Z,0
2017-11-17T01:00:41.106Z,0
2017-11-17T01:01:53.626Z,0
2017-11-17T01:03:06.157Z,0
2017-11-17T01:04:19.150Z,0
2017-11-17T01:05:32.542Z,0
2017-11-17T01:06:45.048Z,0
2017-11-17T01:07:58.061Z,0
2017-11-17T01:09:11.040Z,0
2017-11-17T01:10:23.342Z,0
2017-11-17T01:11:35.459Z,0
2017-11-17T01:12:48.496Z,0
2017-11-17T01:14:01.062Z,0
2017-11-17T01:15:13.141Z,0
2017-11-17T01:16:26.168Z,0
2017-11-17T01:17:38.715Z,0
2017-11-17T01:18:51.783Z,0
2017-11-17T01:20:04.822Z,0
2017-11-17T01:21:18.015Z,0
2017-11-17T01:22:30.552Z,0
2017-11-17T01:23:43.086Z,0
2017-11-17T01:24:55.632Z,0
2017-11-17T01:26:08.160Z,0
2017-11-17T01:27:20.708Z,0
2017-11-17T01:28:33.754Z,0
2017-11-17T01:29:46.946Z,0
2017-11-17T01:30:59.950Z,0
2017-11-17T01:32:12.472Z,0
2017-11-17T01:33:25.028Z,0
2017-11-17T01:34:38.091Z,0
2017-11-17T01:35:51.137Z,0
2017-11-17T01:37:04.202Z,0
2017-11-17T01:38:17.209Z,0
2017-11-17T01:39:30.229Z,0
2017-11-17T01:40:43.178Z,0
2017-11-17T01:41:55.690Z,0
2017-11-17T01:43:08.720Z,0
2017-11-17T01:44:21.750Z,0
2017-11-17T01:45:34.753Z,0
2017-11-17T01:46:47.769Z,0
2017-11-17T01:48:00.807Z,0
2017-11-17T01:49:13.348Z,0
2017-11-17T01:50:25.400Z,0
2017-11-17T01:51:38.473Z,0
2017-11-17T01:52:51.470Z,0
2017-11-17T01:54:04.486Z,0
2017-11-17T01:55:17.464Z,0
2017-11-17T01:56:30.508Z,0
2017-11-17T01:57:43.517Z,0
2017-11-17T01:58:56.531Z,0
2017-11-17T02:00:09.077Z,0
2017-11-17T02:01:22.127Z,0
2017-11-17T02:02:35.123Z,0
2017-11-17T02:03:47.613Z,0
2017-11-17T02:05:00.160Z,0
2017-11-17T02:06:13.166Z,0
2017-11-17T02:07:26.186Z,0
2017-11-17T02:08:39.209Z,0
2017-11-17T02:09:52.233Z,0
2017-11-17T02:11:05.179Z,0
2017-11-17T02:12:17.269Z,0
2017-11-17T02:13:30.257Z,0
2017-11-17T02:14:43.251Z,0
2017-11-17T02:15:55.318Z,0
2017-11-17T02:17:08.302Z,0
2017-11-17T02:18:21.326Z,0
2017-11-17T02:19:34.337Z,0
2017-11-17T02:20:46.906Z,0
2017-11-17T02:22:00.149Z,0
2017-11-17T02:23:13.126Z,0
2017-11-17T02:24:26.076Z,0
2017-11-17T02:25:39.122Z,0
2017-11-17T02:26:52.157Z,0
2017-11-17T02:28:04.713Z,0
2017-11-17T02:29:17.310Z,0
2017-11-17T02:30:30.293Z,0
2017-11-17T02:31:43.333Z,0
2017-11-17T02:32:56.384Z,0
2017-11-17T02:34:09.437Z,0
2017-11-17T02:35:21.997Z,0
2017-11-17T02:36:35.059Z,0
2017-11-17T02:37:47.628Z,0
2017-11-17T02:39:00.184Z,0
2017-11-17T02:40:13.228Z,0
2017-11-17T02:41:26.222Z,0
2017-11-17T02:42:39.261Z,0
2017-11-17T02:43:52.277Z,0
2017-11-17T02:45:04.808Z,0
2017-11-17T02:46:17.355Z,0
2017-11-17T02:47:30.423Z,0
2017-11-17T02:48:43.423Z,0
2017-11-17T02:49:56.448Z,0
2017-11-17T02:51:09.471Z,0
2017-11-17T02:52:22.484Z,0
2017-11-17T02:53:35.018Z,0
2017-11-17T02:54:47.098Z,0
2017-11-17T02:55:59.675Z,0
2017-11-17T02:57:12.684Z,0
2017-11-17T02:58:24.711Z,0
2017-11-17T02:59:37.711Z,0
2017-11-17T03:00:50.262Z,0
2017-11-17T03:02:03.260Z,0
2017-11-17T03:03:16.313Z,0
2017-11-17T03:04:29.503Z,0
2017-11-17T03:05:42.497Z,0
2017-11-17T03:06:55.483Z,0
2017-11-17T03:08:08.494Z,0
2017-11-17T03:09:21.506Z,0
2017-11-17T03:10:34.494Z,0
2017-11-17T03:11:47.489Z,0
2017-11-17T03:13:00.019Z,0
2017-11-17T03:14:13.013Z,0
2017-11-17T03:15:26.014Z,0
2017-11-17T03:16:39.030Z,0
2017-11-17T03:17:51.699Z,0
2017-11-17T03:19:04.677Z,0
2017-11-17T03:20:17.659Z,0
2017-11-17T03:21:30.685Z,0
2017-11-17T03:22:43.700Z,0
2017-11-17T03:23:56.703Z,0
2017-11-17T03:25:09.700Z,0
2017-11-17T03:26:22.727Z,0
2017-11-17T03:27:34.324Z,0
2017-11-17T03:28:47.327Z,0
2017-11-17T03:29:59.861Z,0
2017-11-17T03:31:12.401Z,0
2017-11-17T03:32:25.406Z,0
2017-11-17T03:33:38.398Z,0
2017-11-17T03:34:50.926Z,0
2017-11-17T03:36:03.935Z,0
2017-11-17T03:37:16.904Z,0
2017-11-17T03:38:29.429Z,0
2017-11-17T03:39:42.475Z,0
2017-11-17T03:40:55.478Z,0
2017-11-17T03:42:07.992Z,0
2017-11-17T03:43:20.532Z,0
2017-11-17T03:44:33.709Z,0
2017-11-17T03:45:46.276Z,0
2017-11-17T03:46:59.260Z,0
2017-11-17T03:48:11.860Z,0
2017-11-17T03:49:24.405Z,0
2017-11-17T03:50:36.499Z,0
2017-11-17T03:51:49.540Z,0
2017-11-17T03:53:02.542Z,0
2017-11-17T03:54:15.561Z,0
2017-11-17T03:55:28.614Z,0
2017-11-17T03:56:41.609Z,0
2017-11-17T03:57:54.130Z,0
2017-11-17T03:59:07.111Z,0
2017-11-17T04:00:20.146Z,0
2017-11-17T04:01:33.209Z,0
2017-11-17T04:02:46.267Z,0
2017-11-17T04:03:59.262Z,0
2017-11-17T04:05:11.840Z,0
2017-11-17T04:06:24.856Z,0
2017-11-17T04:07:37.878Z,0
2017-11-17T04:08:51.078Z,0
2017-11-17T04:10:04.066Z,0
2017-11-17T04:11:16.577Z,0
2017-11-17T04:12:29.590Z,0
2017-11-17T04:13:42.121Z,0
2017-11-17T04:14:55.139Z,0
2017-11-17T04:16:08.128Z,0
2017-11-17T04:17:21.131Z,0
2017-11-17T04:18:33.658Z,0
2017-11-17T04:19:46.627Z,0
2017-11-17T04:20:59.162Z,0
2017-11-17T04:22:11.730Z,0
2017-11-17T04:23:24.719Z,0
2017-11-17T04:24:37.745Z,0
2017-11-17T04:25:50.726Z,0
2017-11-17T04:27:03.729Z,0
2017-11-17T04:28:16.279Z,0
2017-11-17T04:29:28.794Z,0
2017-11-17T04:30:41.325Z,0
2017-11-17T04:31:54.330Z,0
2017-11-17T04:33:07.308Z,0
2017-11-17T04:34:20.289Z,0
2017-11-17T04:35:33.334Z,0
2017-11-17T04:36:46.338Z,0
2017-11-17T04:37:59.326Z,0
2017-11-17T04:39:11.824Z,0
2017-11-17T04:40:24.820Z,0
2017-11-17T04:41:37.826Z,0
2017-11-17T04:42:50.368Z,0
2017-11-17T04:44:03.377Z,0
2017-11-17T04:45:16.389Z,0
2017-11-17T04:46:28.898Z,0
2017-11-17T04:47:41.881Z,0
2017-11-17T04:48:54.854Z,0
2017-11-17T04:50:07.879Z,0
2017-11-17T04:51:20.877Z,0
2017-11-17T04:52:33.895Z,0
2017-11-17T04:53:46.924Z,0
2017-11-17T04:54:59.937Z,0
2017-11-17T04:56:12.913Z,0
2017-11-17T04:57:24.971Z,0
2017-11-17T04:58:38.009Z,0
2017-11-17T04:59:50.712Z,0
2017-11-17T05:01:05.151Z,0
2017-11-17T05:02:18.631Z,0
2017-11-17T05:03:32.422Z,0
2017-11-17T05:04:45.426Z,0
2017-11-17T05:05:57.953Z,0
2017-11-17T05:07:10.279Z,0
2017-11-17T05:08:23.552Z,0
2017-11-17T05:09:36.943Z,0
2017-11-17T05:10:50.839Z,0
2017-11-17T05:12:03.840Z,0
2017-11-17T05:13:21.616Z,0
2017-11-17T05:14:35.046Z,0
2017-11-17T05:15:48.043Z,0
2017-11-17T05:17:00.558Z,0
2017-11-17T05:18:13.558Z,0
2017-11-17T05:19:26.557Z,0
2017-11-17T05:20:39.102Z,0
2017-11-17T05:21:51.439Z,0
2017-11-17T05:23:04.428Z,0
2017-11-17T05:24:17.054Z,0
2017-11-17T05:25:29.660Z,0
2017-11-17T05:26:41.738Z,0
2017-11-17T05:27:54.466Z,0
2017-11-17T05:29:07.039Z,0
2017-11-17T05:30:19.576Z,0
2017-11-17T05:31:32.390Z,0
2017-11-17T05:32:45.428Z,0
2017-11-17T05:33:58.445Z,0
2017-11-17T05:35:11.421Z,0
2017-11-17T05:36:23.975Z,0
2017-11-17T05:37:36.984Z,0
2017-11-17T05:38:49.510Z,0
2017-11-17T05:40:02.537Z,0
2017-11-17T05:41:15.107Z,0
2017-11-17T05:42:27.176Z,0
2017-11-17T05:43:39.694Z,0
2017-11-17T05:44:52.306Z,0
2017-11-17T05:46:04.842Z,0
2017-11-17T05:47:17.836Z,0
2017-11-17T05:48:30.856Z,0
2017-11-17T05:49:43.844Z,0
2017-11-17T05:50:56.834Z,0
2017-11-17T05:52:09.626Z,0
2017-11-17T05:53:22.640Z,0
2017-11-17T05:54:35.660Z,0
2017-11-17T05:55:48.716Z,0
2017-11-17T05:57:01.234Z,0
2017-11-17T05:58:13.786Z,0
2017-11-17T05:59:26.804Z,0
2017-11-17T06:00:38.864Z,0
2017-11-17T06:01:51.895Z,0
2017-11-17T06:03:05.114Z,0
2017-11-17T06:04:17.609Z,0
2017-11-17T06:05:30.589Z,0
2017-11-17T06:06:43.594Z,0
2017-11-17T06:07:56.597Z,0
2017-11-17T06:09:09.592Z,0
2017-11-17T06:10:22.588Z,0
2017-11-17T06:11:35.104Z,0
2017-11-17T06:12:47.615Z,0
2017-11-17T06:14:00.601Z,0
2017-11-17T06:15:13.653Z,0
2017-11-17T06:16:26.210Z,0
2017-11-17T06:17:38.713Z,0
2017-11-17T06:18:51.728Z,0
2017-11-17T06:20:04.269Z,0
2017-11-17T06:21:17.289Z,0
2017-11-17T06:22:30.336Z,0
2017-11-17T06:23:43.323Z,0
2017-11-17T06:24:55.812Z,0
2017-11-17T06:26:08.855Z,0
2017-11-17T06:27:21.801Z,0
2017-11-17T06:28:34.730Z,0
2017-11-17T06:29:47.237Z,0
2017-11-17T06:31:00.232Z,0
2017-11-17T06:32:13.224Z,0
2017-11-17T06:33:26.225Z,0
2017-11-17T06:34:38.736Z,0
2017-11-17T06:35:51.754Z,0
2017-11-17T06:37:04.829Z,0
2017-11-17T06:38:17.865Z,0
2017-11-17T06:39:30.875Z,0
2017-11-17T06:40:43.920Z,0
2017-11-17T06:41:56.922Z,0
2017-11-17T06:43:09.463Z,0
2017-11-17T06:44:22.035Z,0
2017-11-17T06:45:34.579Z,0
2017-11-17T06:46:47.579Z,0
2017-11-17T06:48:00.582Z,0
2017-11-17T06:49:13.100Z,0
2017-11-17T06:50:25.652Z,0
2017-11-17T06:51:38.201Z,0
2017-11-17T06:52:51.274Z,0
2017-11-17T06:54:04.344Z,0
2017-11-17T06:55:17.327Z,0
2017-11-17T06:56:30.092Z,0
2017-11-17T06:57:43.083Z,0
2017-11-17T06:58:56.106Z,0
2017-11-17T07:00:09.152Z,0
2017-11-17T07:01:22.139Z,0
2017-11-17T07:02:34.207Z,0
2017-11-17T07:03:47.214Z,0
2017-11-17T07:05:00.210Z,0
2017-11-17T07:06:12.760Z,0
2017-11-17T07:07:25.304Z,0
2017-11-17T07:08:38.351Z,0
2017-11-17T07:09:51.565Z,0
2017-11-17T07:11:04.053Z,0
2017-11-17T07:12:17.064Z,0
2017-11-17T07:13:30.046Z,0
2017-11-17T07:14:43.059Z,0
2017-11-17T07:15:56.099Z,0
2017-11-17T07:17:09.164Z,0
2017-11-17T07:18:21.723Z,0
2017-11-17T07:19:34.712Z,0
2017-11-17T07:20:47.722Z,0
2017-11-17T07:22:00.296Z,0
2017-11-17T07:23:13.298Z,0
2017-11-17T07:24:25.828Z,0
2017-11-17T07:25:38.845Z,0
2017-11-17T07:26:52.073Z,0
2017-11-17T07:28:05.064Z,0
2017-11-17T07:29:17.594Z,0
2017-11-17T07:30:30.100Z,0
2017-11-17T07:31:43.097Z,0
2017-11-17T07:32:55.644Z,0
2017-11-17T07:34:08.180Z,0
2017-11-17T07:35:20.708Z,0
2017-11-17T07:36:33.691Z,0
2017-11-17T07:37:46.720Z,0
2017-11-17T07:38:59.745Z,0
2017-11-17T07:40:12.324Z,0
2017-11-17T07:41:25.358Z,0
2017-11-17T07:42:37.898Z,0
2017-11-17T07:43:50.879Z,0
2017-11-17T07:45:03.825Z,0
2017-11-17T07:46:17.089Z,0
2017-11-17T07:47:29.183Z,0
2017-11-17T07:48:41.712Z,0
2017-11-17T07:49:54.728Z,0
2017-11-17T07:51:07.248Z,0
2017-11-17T07:52:19.757Z,0
2017-11-17T07:53:31.841Z,0
2017-11-17T07:54:44.393Z,0
2017-11-17T07:55:57.385Z,0
2017-11-17T07:57:09.924Z,0
2017-11-17T07:58:23.122Z,0
2017-11-17T07:59:35.218Z,0
2017-11-17T08:00:47.797Z,0
2017-11-17T08:02:00.855Z,0
2017-11-17T08:03:13.962Z,0
2017-11-17T08:04:26.487Z,0
2017-11-17T08:05:39.492Z,0
2017-11-17T08:06:52.518Z,0
2017-11-17T08:08:04.613Z,0
2017-11-17T08:09:16.718Z,0
2017-11-17T08:10:29.712Z,0
2017-11-17T08:11:42.706Z,0
2017-11-17T08:12:55.199Z,0
2017-11-17T08:14:08.218Z,0
2017-11-17T08:15:21.260Z,0
2017-11-17T08:16:34.266Z,0
2017-11-17T08:17:46.800Z,0
2017-11-17T08:18:59.787Z,0
2017-11-17T08:20:12.780Z,0
2017-11-17T08:21:25.808Z,0
2017-11-17T08:22:38.335Z,0
2017-11-17T08:23:51.390Z,0
2017-11-17T08:25:04.389Z,0
2017-11-17T08:26:16.410Z,0
2017-11-17T08:27:29.396Z,0
2017-11-17T08:28:42.338Z,0
2017-11-17T08:29:55.366Z,0
2017-11-17T08:31:08.416Z,0
2017-11-17T08:32:20.926Z,0
2017-11-17T08:33:33.966Z,0
2017-11-17T08:34:46.479Z,0
2017-11-17T08:35:59.498Z,0
2017-11-17T08:37:12.073Z,0
2017-11-17T08:38:25.113Z,0
2017-11-17T08:39:37.647Z,0
2017-11-17T08:40:50.641Z,0
2017-11-17T08:42:03.635Z,0
2017-11-17T08:43:16.690Z,0
2017-11-17T08:44:29.732Z,5
2017-11-17T08:45:42.736Z,5
2017-11-17T08:46:55.788Z,5
2017-11-17T08:48:08.759Z,5
2017-11-17T08:49:21.781Z,5
2017-11-17T08:50:35.002Z,5
2017-11-17T08:51:48.043Z,10
2017-11-17T08:53:01.061Z,10
2017-11-17T08:54:13.584Z,10
2017-11-17T08:55:25.667Z,10
2017-11-17T08:56:38.658Z,15
2017-11-17T08:57:51.646Z,15
2017-11-17T08:59:04.624Z,20
2017-11-17T09:00:17.132Z,20
2017-11-17T09:01:30.164Z,20
2017-11-17T09:02:42.677Z,25
2017-11-17T09:03:55.647Z,30
2017-11-17T09:05:08.177Z,30
2017-11-17T09:06:21.181Z,35
2017-11-17T09:07:33.735Z,40
2017-11-17T09:08:46.258Z,45
2017-11-17T09:09:59.255Z,50
2017-11-17T09:11:11.815Z,55
2017-11-17T09:12:24.823Z,65
2017-11-17T09:13:37.865Z,70
2017-11-17T09:14:50.436Z,75
2017-11-17T09:16:03.449Z,80
2017-11-17T09:17:16.426Z,90
2017-11-17T09:18:28.989Z,100
2017-11-17T09:19:42.072Z,115
2017-11-17T09:20:55.124Z,135
2017-11-17T09:22:08.175Z,150
2017-11-17T09:23:21.192Z,165
2017-11-17T09:24:34.155Z,180
2017-11-17T09:25:46.692Z,200
2017-11-17T09:26:59.204Z,220
2017-11-17T09:28:11.740Z,240
2017-11-17T09:29:24.746Z,260
2017-11-17T09:30:37.333Z,285
2017-11-17T09:31:50.366Z,300
2017-11-17T09:33:02.915Z,305
2017-11-17T09:34:14.971Z,315
2017-11-17T09:35:27.474Z,315
2017-11-17T09:36:40.547Z,315
2017-11-17T09:37:53.048Z,315
2017-11-17T09:39:05.586Z,315
2017-11-17T09:40:18.171Z,315
2017-11-17T09:41:31.388Z,305
2017-11-17T09:42:44.412Z,300
2017-11-17T09:43:57.455Z,300
2017-11-17T09:45:10.005Z,295
2017-11-17T09:46:23.037Z,290
2017-11-17T09:47:36.116Z,285
2017-11-17T09:48:48.669Z,290
2017-11-17T09:50:01.689Z,300
2017-11-17T09:51:14.737Z,320
2017-11-17T09:52:27.228Z,345
2017-11-17T09:53:40.245Z,360
2017-11-17T09:54:53.227Z,365
2017-11-17T09:56:05.275Z,370
2017-11-17T09:57:18.302Z,365
2017-11-17T09:58:30.346Z,360
2017-11-17T09:59:43.358Z,350
2017-11-17T10:00:55.894Z,340
2017-11-17T10:02:08.880Z,335
2017-11-17T10:03:21.876Z,330
2017-11-17T10:04:34.883Z,330
2017-11-17T10:05:47.418Z,325
2017-11-17T10:07:00.491Z,325
2017-11-17T10:08:13.476Z,335
2017-11-17T10:09:25.994Z,350
2017-11-17T10:10:38.541Z,360
2017-11-17T10:11:51.553Z,385
2017-11-17T10:13:04.742Z,405
2017-11-17T10:14:17.792Z,415
2017-11-17T10:15:30.840Z,425
2017-11-17T10:16:43.362Z,440
2017-11-17T10:17:56.389Z,450
2017-11-17T10:19:09.394Z,460
2017-11-17T10:20:21.946Z,470
2017-11-17T10:21:34.072Z,480
2017-11-17T10:22:47.104Z,485
2017-11-17T10:24:00.106Z,480
2017-11-17T10:25:13.117Z,480
2017-11-17T10:26:26.085Z,480
2017-11-17T10:27:38.625Z,485
2017-11-17T10:28:51.192Z,485
2017-11-17T10:30:03.777Z,485
2017-11-17T10:31:16.306Z,490
2017-11-17T10:32:29.316Z,495
2017-11-17T10:33:41.868Z,495
2017-11-17T10:34:54.858Z,510
2017-11-17T10:36:06.917Z,540
2017-11-17T10:37:19.921Z,565
2017-11-17T10:38:32.936Z,600
2017-11-17T10:39:45.969Z,625
2017-11-17T10:40:58.493Z,640
2017-11-17T10:42:11.030Z,655
2017-11-17T10:43:24.039Z,675
2017-11-17T10:44:37.008Z,700
2017-11-17T10:45:50.021Z,740
2017-11-17T10:47:03.008Z,775
2017-11-17T10:48:15.996Z,845
2017-11-17T10:49:29.059Z,900
2017-11-17T10:50:42.070Z,955
2017-11-17T10:51:55.312Z,1020
2017-11-17T10:53:08.333Z,1075
2017-11-17T10:54:21.334Z,1160
2017-11-17T10:55:34.301Z,1200
2017-11-17T10:56:47.294Z,1140
2017-11-17T10:58:00.315Z,1225
2017-11-17T10:59:13.360Z,1085
2017-11-17T11:00:25.914Z,1075
2017-11-17T11:01:38.879Z,1075
2017-11-17T11:02:51.887Z,1075
2017-11-17T11:04:04.905Z,1085
2017-11-17T11:05:17.642Z,1015
2017-11-17T11:06:30.173Z,955
2017-11-17T11:07:43.239Z,895
2017-11-17T11:08:56.286Z,840
2017-11-17T11:10:09.320Z,760
2017-11-17T11:11:22.337Z,695
2017-11-17T11:12:35.368Z,630
2017-11-17T11:13:47.920Z,600
2017-11-17T11:15:00.950Z,590
2017-11-17T11:16:13.524Z,590
2017-11-17T11:17:26.537Z,605
2017-11-17T11:18:39.067Z,635
2017-11-17T11:19:52.108Z,675
2017-11-17T11:21:05.106Z,730
2017-11-17T11:22:17.663Z,780
2017-11-17T11:23:30.663Z,825
2017-11-17T11:24:43.237Z,865
2017-11-17T11:25:55.997Z,905
2017-11-17T11:27:09.037Z,945
2017-11-17T11:28:22.057Z,980
2017-11-17T11:29:35.059Z,1015
2017-11-17T11:30:47.591Z,1055
2017-11-17T11:32:00.136Z,1085
2017-11-17T11:33:13.123Z,1125
2017-11-17T11:34:26.121Z,1175
2017-11-17T11:35:39.147Z,1235
2017-11-17T11:36:51.629Z,1335
2017-11-17T11:38:04.619Z,1690
2017-11-17T11:39:17.792Z,1565
2017-11-17T11:40:30.762Z,1660
2017-11-17T11:41:42.837Z,1700
2017-11-17T11:42:55.400Z,1690
2017-11-17T11:44:07.471Z,1680
2017-11-17T11:45:20.465Z,1695
2017-11-17T11:46:33.502Z,1595
2017-11-17T11:47:46.516Z,1500
2017-11-17T11:48:59.500Z,1470
2017-11-17T11:50:12.471Z,1425
2017-11-17T11:51:25.523Z,1500
2017-11-17T11:52:38.537Z,1525
2017-11-17T11:53:51.582Z,1495
2017-11-17T11:55:04.619Z,1475
2017-11-17T11:56:17.657Z,1595
2017-11-17T11:57:30.680Z,1720
2017-11-17T11:58:43.226Z,1740
2017-11-17T11:59:56.231Z,1645
2017-11-17T12:01:09.321Z,1460
2017-11-17T12:02:21.421Z,1435
2017-11-17T12:03:34.407Z,1440
2017-11-17T12:04:47.421Z,1460
2017-11-17T12:05:59.925Z,1455
2017-11-17T12:07:12.962Z,1560
2017-11-17T12:08:25.530Z,1540
2017-11-17T12:09:38.067Z,1755
2017-11-17T12:10:51.104Z,1720
2017-11-17T12:12:03.657Z,2190
2017-11-17T12:13:16.721Z,2170
2017-11-17T12:14:29.289Z,1770
2017-11-17T12:15:41.801Z,2265
2017-11-17T12:16:54.812Z,2035
2017-11-17T12:18:07.783Z,1845
2017-11-17T12:19:20.814Z,1735
2017-11-17T12:20:33.801Z,2010
2017-11-17T12:21:46.361Z,1870
2017-11-17T12:22:59.377Z,1945
2017-11-17T12:24:12.498Z,1890
2017-11-17T12:25:25.511Z,2155
2017-11-17T12:26:38.052Z,1875
2017-11-17T12:27:51.064Z,1510
2017-11-17T12:29:04.111Z,1325
2017-11-17T12:30:16.616Z,1385
2017-11-17T12:31:28.679Z,1530
2017-11-17T12:32:41.289Z,1460
2017-11-17T12:33:53.799Z,1415
2017-11-17T12:35:05.890Z,1365
2017-11-17T12:36:18.457Z,1395
2017-11-17T12:37:31.211Z,2155
2017-11-17T12:38:44.199Z,2440
2017-11-17T12:39:56.789Z,2365
2017-11-17T12:41:09.456Z,2330
2017-11-17T12:42:22.482Z,1795
2017-11-17T12:43:35.533Z,1605
2017-11-17T12:44:48.540Z,1430
2017-11-17T12:46:02.642Z,2075
2017-11-17T12:47:15.212Z,1985
2017-11-17T12:48:28.244Z,2045
2017-11-17T12:49:41.248Z,2125
2017-11-17T12:50:54.239Z,2210
2017-11-17T12:52:07.466Z,2250
2017-11-17T12:53:20.508Z,2260
2017-11-17T12:54:33.516Z,2310
2017-11-17T12:55:46.528Z,2180
2017-11-17T12:56:59.112Z,2525
2017-11-17T12:58:12.132Z,2330
2017-11-17T12:59:25.133Z,2185
2017-11-17T13:00:37.672Z,2020
2017-11-17T13:01:50.701Z,1850
2017-11-17T13:03:03.705Z,2035
2017-11-17T13:04:16.253Z,2090
2017-11-17T13:05:29.268Z,2070
2017-11-17T13:06:42.266Z,2145
2017-11-17T13:07:55.284Z,2275
2017-11-17T13:09:07.837Z,2480
2017-11-17T13:10:20.857Z,1855
2017-11-17T13:11:33.899Z,2465
2017-11-17T13:12:46.980Z,2150
2017-11-17T13:13:59.547Z,1870
2017-11-17T13:15:12.134Z,1775
2017-11-17T13:16:24.730Z,1755
2017-11-17T13:17:37.720Z,1875
2017-11-17T13:18:50.280Z,1840
2017-11-17T13:20:02.826Z,1725
2017-11-17T13:21:16.038Z,1705
2017-11-17T13:22:28.170Z,1820
2017-11-17T13:23:40.739Z,1790
2017-11-17T13:24:53.796Z,2100
2017-11-17T13:26:06.833Z,2290
2017-11-17T13:27:19.863Z,2610
2017-11-17T13:28:32.906Z,2355
2017-11-17T13:29:45.922Z,2625
2017-11-17T13:30:58.508Z,1900
2017-11-17T13:32:11.633Z,2630
2017-11-17T13:33:23.723Z,2540
2017-11-17T13:34:36.280Z,2605
2017-11-17T13:35:48.347Z,2675
2017-11-17T13:37:00.863Z,2780
2017-11-17T13:38:13.448Z,2190
2017-11-17T13:39:26.095Z,2195
2017-11-17T13:40:38.678Z,2125
2017-11-17T13:41:51.205Z,1960
2017-11-17T13:43:04.244Z,1945
2017-11-17T13:44:16.298Z,2130
2017-11-17T13:45:28.812Z,2260
2017-11-17T13:46:41.830Z,2085
2017-11-17T13:47:54.901Z,2150
2017-11-17T13:49:07.487Z,2260
2017-11-17T13:50:20.500Z,2075
2017-11-17T13:51:33.532Z,1915
2017-11-17T13:52:46.561Z,1760
2017-11-17T13:53:59.101Z,1650
2017-11-17T13:55:11.198Z,1590
2017-11-17T13:56:24.206Z,1590
2017-11-17T13:57:37.196Z,1610
2017-11-17T13:58:50.193Z,1630
2017-11-17T14:00:03.269Z,1660
2017-11-17T14:01:15.807Z,1700
2017-11-17T14:02:28.835Z,1750
2017-11-17T14:03:41.862Z,1810
2017-11-17T14:04:54.402Z,1780
2017-11-17T14:06:07.449Z,1770
2017-11-17T14:07:20.086Z,1795
2017-11-17T14:08:33.133Z,1830
2017-11-17T14:09:45.667Z,1875
2017-11-17T14:10:58.889Z,1905
2017-11-17T14:12:11.412Z,1910
2017-11-17T14:13:23.967Z,1900
2017-11-17T14:14:36.122Z,1920
2017-11-17T14:15:48.690Z,1955
2017-11-17T14:17:01.685Z,1950
2017-11-17T14:18:14.730Z,1930
2017-11-17T14:19:27.761Z,1890
2017-11-17T14:20:40.300Z,1870
2017-11-17T14:21:53.312Z,1885
2017-11-17T14:23:06.328Z,1960
2017-11-17T14:24:18.829Z,2030
2017-11-17T14:25:31.869Z,2040
2017-11-17T14:26:44.385Z,2005
2017-11-17T14:27:56.921Z,1955
2017-11-17T14:29:09.919Z,1885
2017-11-17T14:30:22.490Z,1805
2017-11-17T14:31:35.526Z,1790
2017-11-17T14:32:48.081Z,1785
2017-11-17T14:34:00.201Z,1765
2017-11-17T14:35:13.201Z,1740
2017-11-17T14:36:26.179Z,1745
2017-11-17T14:37:38.734Z,1645
2017-11-17T14:38:51.758Z,1590
2017-11-17T14:40:04.977Z,1535
2017-11-17T14:41:18.004Z,1475
2017-11-17T14:42:31.031Z,1435
2017-11-17T14:43:44.051Z,1410
2017-11-17T14:44:57.087Z,1405
2017-11-17T14:46:10.111Z,1410
2017-11-17T14:47:22.684Z,1430
2017-11-17T14:48:35.737Z,1470
2017-11-17T14:49:48.700Z,1515
2017-11-17T14:51:01.759Z,1565
2017-11-17T14:52:14.307Z,1595
2017-11-17T14:53:27.348Z,1535
2017-11-17T14:54:40.337Z,1445
2017-11-17T14:55:52.863Z,1370
2017-11-17T14:57:05.418Z,1310
2017-11-17T14:58:17.948Z,1250
2017-11-17T14:59:30.968Z,1225
2017-11-17T15:00:43.523Z,1225
2017-11-17T15:01:56.084Z,1235
2017-11-17T15:03:08.818Z,1250
2017-11-17T15:04:21.811Z,1260
2017-11-17T15:05:34.805Z,1265
2017-11-17T15:06:47.806Z,1275
2017-11-17T15:08:01.031Z,1285
2017-11-17T15:09:14.052Z,1320
2017-11-17T15:10:27.063Z,1340
2017-11-17T15:11:40.125Z,1355
2017-11-17T15:12:52.874Z,1360
2017-11-17T15:14:05.413Z,1350
2017-11-17T15:15:18.409Z,1365
2017-11-17T15:16:31.510Z,1355
2017-11-17T15:17:44.499Z,1370
2017-11-17T15:18:57.549Z,1390
2017-11-17T15:20:09.840Z,1425
2017-11-17T15:21:22.888Z,1420
2017-11-17T15:22:35.925Z,1410
2017-11-17T15:23:48.919Z,1390
2017-11-17T15:25:00.804Z,1365
2017-11-17T15:26:12.920Z,1325
2017-11-17T15:27:25.995Z,1285
2017-11-17T15:28:38.525Z,1275
2017-11-17T15:29:51.215Z,1275
2017-11-17T15:31:04.235Z,1270
2017-11-17T15:32:16.787Z,1245
2017-11-17T15:33:29.362Z,1225
2017-11-17T15:34:41.454Z,1215
2017-11-17T15:35:54.002Z,1210
2017-11-17T15:37:06.522Z,1225
2017-11-17T15:38:19.036Z,1230
2017-11-17T15:39:32.055Z,1250
2017-11-17T15:40:44.597Z,1265
2017-11-17T15:41:57.626Z,1285
2017-11-17T15:43:10.630Z,1320
2017-11-17T15:44:23.140Z,1350
2017-11-17T15:45:36.193Z,1400
2017-11-17T15:46:49.433Z,1440
2017-11-17T15:48:02.461Z,1505
2017-11-17T15:49:15.471Z,1580
2017-11-17T15:50:28.043Z,1695
2017-11-17T15:51:41.060Z,1745
2017-11-17T15:52:54.109Z,2000
2017-11-17T15:54:07.174Z,1920
2017-11-17T15:55:19.699Z,2010
2017-11-17T15:56:32.259Z,1930
2017-11-17T15:57:45.283Z,1970
2017-11-17T15:58:58.010Z,2065
2017-11-17T16:00:10.561Z,1970
2017-11-17T16:01:22.670Z,2010
2017-11-17T16:02:36.578Z,1950
2017-11-17T16:03:49.600Z,2165
2017-11-17T16:05:02.617Z,1830
2017-11-17T16:06:14.693Z,1740
2017-11-17T16:07:27.749Z,1685
2017-11-17T16:08:40.763Z,1670
2017-11-17T16:09:53.964Z,1685
2017-11-17T16:11:06.986Z,1640
2017-11-17T16:12:19.537Z,1620
2017-11-17T16:13:32.091Z,1610
2017-11-17T16:14:45.127Z,1625
2017-11-17T16:15:58.109Z,1630
2017-11-17T16:17:11.159Z,1655
2017-11-17T16:18:24.198Z,1670
2017-11-17T16:19:37.211Z,1690
2017-11-17T16:20:49.745Z,1710
2017-11-17T16:22:02.766Z,1715
2017-11-17T16:23:15.780Z,1735
2017-11-17T16:24:28.344Z,1750
2017-11-17T16:25:41.326Z,1790
2017-11-17T16:26:54.344Z,1820
2017-11-17T16:28:07.357Z,1885
2017-11-17T16:29:20.409Z,1875
2017-11-17T16:30:32.972Z,1945
2017-11-17T16:31:45.979Z,1950
2017-11-17T16:32:58.514Z,1990
2017-11-17T16:34:11.099Z,1850
2017-11-17T16:35:24.121Z,1730
2017-11-17T16:36:37.144Z,1630
2017-11-17T16:37:50.396Z,1580
2017-11-17T16:39:03.371Z,1535
2017-11-17T16:40:16.561Z,1490
2017-11-17T16:41:29.102Z,1440
2017-11-17T16:42:42.108Z,1415
2017-11-17T16:43:55.078Z,1375
2017-11-17T16:45:08.104Z,1355
2017-11-17T16:46:20.997Z,1315
2017-11-17T16:47:33.572Z,1285
2017-11-17T16:48:46.159Z,1270
2017-11-17T16:49:58.689Z,1260
2017-11-17T16:51:11.683Z,1250
2017-11-17T16:52:24.229Z,1240
2017-11-17T16:53:36.753Z,1240
2017-11-17T16:54:49.729Z,1230
2017-11-17T16:56:02.738Z,1240
2017-11-17T16:57:15.792Z,1275
2017-11-17T16:58:28.332Z,1355
2017-11-17T16:59:41.304Z,1475
2017-11-17T17:00:54.322Z,2010
2017-11-17T17:02:07.307Z,4420
2017-11-17T17:03:19.987Z,4220
2017-11-17T17:04:32.983Z,3325
2017-11-17T17:05:46.031Z,3530
2017-11-17T17:06:59.071Z,3445
2017-11-17T17:08:12.175Z,2590